Time;durP1;ratioP1;P1;durP2;ratioP2;P2;SDS_P1;SDS_P2;PMS_P1;PMS_P2;Temp;Humidity;BMP_temperature;BMP_pressure;BME280_temperature;BME280_humidity;BME280_pressure;Samples;Min_cycle;Max_cycle;Signal;HPM_P1;HPM_P2
2023/05/01 00:00:06;;;;;;;6.60;4.53;;;10.30;99.90;;;;;;5045828;28;20555;-60
2023/05/01 00:02:34;;;;;;;6.37;4.50;;;10.30;99.90;;;;;;5046173;28;20440;-59
2023/05/01 00:05:01;;;;;;;6.60;4.77;;;10.20;99.90;;;;;;5045919;28;20472;-60
2023/05/01 00:07:29;;;;;;;8.10;4.47;;;10.20;99.90;;;;;;5045882;28;20913;-59
2023/05/01 00:09:57;;;;;;;12.47;5.30;;;10.20;99.90;;;;;;5046144;28;20533;-58
2023/05/01 00:12:25;;;;;;;9.00;4.73;;;10.10;99.90;;;;;;5045984;28;20482;-59
2023/05/01 00:14:56;;;;;;;8.93;4.87;;;10.10;99.90;;;;;;5046284;28;20465;-61
2023/05/01 00:17:23;;;;;;;8.00;5.00;;;10.10;99.90;;;;;;5045392;28;20467;-59
2023/05/01 00:19:52;;;;;;;8.70;4.00;;;10.10;99.90;;;;;;5045958;28;20570;-60
2023/05/01 00:22:19;;;;;;;5.70;3.90;;;10.00;99.90;;;;;;5044606;28;20505;-61
2023/05/01 00:24:46;;;;;;;11.13;3.87;;;10.00;99.90;;;;;;5043419;28;20535;-59
2023/05/01 00:27:13;;;;;;;5.87;3.73;;;10.00;99.90;;;;;;5043239;28;20468;-60
2023/05/01 00:29:41;;;;;;;9.17;4.20;;;10.00;99.90;;;;;;5043785;28;20462;-60
2023/05/01 00:32:09;;;;;;;8.83;4.83;;;10.00;99.90;;;;;;5043679;28;20486;-60
2023/05/01 00:34:36;;;;;;;7.33;4.37;;;9.90;99.90;;;;;;5044193;28;20494;-60
2023/05/01 00:37:02;;;;;;;8.13;5.00;;;9.90;99.90;;;;;;5043113;28;20523;-62
2023/05/01 00:39:29;;;;;;;7.13;4.20;;;9.90;99.90;;;;;;5043459;28;21039;-59
2023/05/01 00:41:56;;;;;;;4.97;3.43;;;9.80;99.90;;;;;;5043185;28;20480;-59
2023/05/01 00:44:23;;;;;;;8.13;5.20;;;9.80;99.90;;;;;;5043720;28;20546;-60
2023/05/01 00:46:50;;;;;;;7.20;4.20;;;9.80;99.90;;;;;;5043839;28;20475;-61
2023/05/01 00:49:18;;;;;;;6.70;4.20;;;9.80;99.90;;;;;;5042884;28;21004;-60
2023/05/01 00:51:49;;;;;;;5.13;3.63;;;9.70;99.90;;;;;;5043765;28;20479;-61
2023/05/01 00:54:16;;;;;;;5.60;3.90;;;9.60;99.90;;;;;;5040266;28;20972;-56
2023/05/01 00:56:43;;;;;;;8.73;4.40;;;9.60;99.90;;;;;;5041147;28;20436;-60
2023/05/01 00:59:10;;;;;;;8.03;4.10;;;9.50;99.90;;;;;;5040781;28;20871;-59
2023/05/01 01:01:37;;;;;;;7.20;3.90;;;9.50;99.90;;;;;;5040219;28;20913;-60
2023/05/01 01:04:05;;;;;;;4.50;3.53;;;9.40;99.90;;;;;;5040819;28;20751;-61
2023/05/01 01:06:47;;;;;;;7.47;4.27;;;9.40;99.90;;;;;;5040336;28;20463;-59
2023/05/01 01:09:23;;;;;;;8.53;4.50;;;9.40;99.90;;;;;;5040498;28;20452;-60
2023/05/01 01:11:57;;;;;;;8.00;4.90;;;9.30;99.90;;;;;;5051101;28;20460;-57
2023/05/01 01:14:31;;;;;;;10.23;4.93;;;9.20;99.90;;;;;;5058706;28;20453;-58
2023/05/01 01:17:04;;;;;;;5.60;4.27;;;9.10;99.90;;;;;;5054700;28;20529;-59
2023/05/01 01:20:00;;;;;;;10.93;6.03;;;9.10;99.90;;;;;;5053159;28;20471;-58
2023/05/01 01:22:29;;;;;;;11.83;6.10;;;9.00;99.90;;;;;;5045085;28;20536;-59
2023/05/01 01:25:26;;;;;;;11.03;5.80;;;8.80;99.90;;;;;;5044301;28;20432;-60
2023/05/01 01:28:24;;;;;;;5.80;3.80;;;8.90;99.90;;;;;;5041577;28;20463;-59
2023/05/01 01:31:10;;;;;;;6.27;4.20;;;8.80;99.90;;;;;;5045246;28;20507;-59
2023/05/01 01:34:01;;;;;;;7.43;5.30;;;8.70;99.90;;;;;;5044863;28;20428;-61
2023/05/01 01:36:37;;;;;;;7.17;4.77;;;8.70;99.90;;;;;;5045340;28;20459;-59
2023/05/01 01:39:08;;;;;;;10.93;5.30;;;8.70;99.90;;;;;;5044740;28;20456;-60
2023/05/01 01:41:40;;;;;;;13.93;6.50;;;8.70;99.90;;;;;;5044820;28;20804;-61
2023/05/01 01:44:12;;;;;;;11.47;4.87;;;8.60;99.90;;;;;;5044823;28;20439;-59
2023/05/01 01:46:42;;;;;;;9.90;5.17;;;8.60;99.90;;;;;;5044823;28;20446;-59
2023/05/01 01:49:18;;;;;;;12.07;5.57;;;8.60;99.90;;;;;;5050761;28;20440;-56
2023/05/01 01:51:47;;;;;;;11.50;6.10;;;8.60;99.90;;;;;;5049811;28;20495;-59
2023/05/01 01:54:18;;;;;;;8.70;5.20;;;8.60;99.90;;;;;;5044645;28;20448;-59
2023/05/01 01:56:48;;;;;;;10.67;5.53;;;8.40;99.90;;;;;;5044413;28;20558;-59
2023/05/01 01:59:16;;;;;;;7.30;5.80;;;8.40;99.90;;;;;;5045016;28;20920;-59
2023/05/01 02:01:46;;;;;;;11.50;6.50;;;8.40;99.90;;;;;;5045094;28;20539;-59
2023/05/01 02:04:15;;;;;;;7.40;5.00;;;8.40;99.90;;;;;;5048740;28;20512;-59
2023/05/01 02:06:44;;;;;;;8.73;5.70;;;8.30;99.90;;;;;;5044028;28;20456;-59
2023/05/01 02:09:16;;;;;;;10.83;5.93;;;8.30;99.90;;;;;;5039978;28;20441;-58
2023/05/01 02:11:45;;;;;;;10.30;5.40;;;8.30;99.90;;;;;;5039944;28;20475;-61
2023/05/01 02:14:13;;;;;;;11.13;5.27;;;8.30;99.90;;;;;;5039228;28;20472;-58
2023/05/01 02:16:42;;;;;;;13.43;6.00;;;8.20;99.90;;;;;;5039773;28;20459;-60
2023/05/01 02:19:13;;;;;;;8.63;5.80;;;8.20;99.90;;;;;;5039262;28;20507;-60
2023/05/01 02:21:44;;;;;;;11.10;5.60;;;8.10;99.90;;;;;;5040281;28;20504;-59
2023/05/01 02:24:13;;;;;;;9.17;6.07;;;8.10;99.90;;;;;;5039461;28;20468;-59
2023/05/01 02:26:43;;;;;;;10.07;6.43;;;8.10;99.90;;;;;;5039618;28;20483;-59
2023/05/01 02:29:10;;;;;;;9.50;5.40;;;8.00;99.90;;;;;;5039105;28;20472;-60
2023/05/01 02:31:43;;;;;;;8.90;5.43;;;8.00;99.90;;;;;;5039015;28;20483;-58
2023/05/01 02:34:15;;;;;;;7.70;4.97;;;8.00;99.90;;;;;;5038366;28;20476;-58
2023/05/01 02:36:45;;;;;;;9.27;5.43;;;8.00;99.90;;;;;;5039233;28;20483;-60
2023/05/01 02:39:12;;;;;;;12.13;5.97;;;7.90;99.90;;;;;;5039862;28;20472;-60
2023/05/01 02:41:42;;;;;;;16.20;5.77;;;7.90;99.90;;;;;;5039236;28;20992;-58
2023/05/01 02:44:12;;;;;;;6.57;5.40;;;7.90;99.90;;;;;;5040045;28;20476;-59
2023/05/01 02:46:43;;;;;;;12.50;5.93;;;7.90;99.90;;;;;;5039244;28;20863;-58
2023/05/01 02:49:12;;;;;;;7.23;5.00;;;7.80;99.90;;;;;;5039741;28;20440;-59
2023/05/01 02:51:39;;;;;;;8.90;5.93;;;7.80;99.90;;;;;;5038993;28;20452;-60
2023/05/01 02:54:08;;;;;;;18.73;6.80;;;7.80;99.90;;;;;;5038634;28;20539;-59
2023/05/01 02:56:36;;;;;;;7.87;5.90;;;7.80;99.90;;;;;;5038896;28;20482;-60
2023/05/01 02:59:02;;;;;;;13.20;6.00;;;7.80;99.90;;;;;;5038678;28;20511;-57
2023/05/01 03:01:29;;;;;;;9.50;5.80;;;7.80;99.90;;;;;;5038655;28;20571;-61
2023/05/01 03:03:57;;;;;;;6.50;5.53;;;7.80;99.90;;;;;;5038562;28;20468;-59
2023/05/01 03:06:27;;;;;;;9.43;5.83;;;7.80;99.90;;;;;;5038482;28;20464;-60
2023/05/01 03:08:57;;;;;;;7.90;5.23;;;7.80;99.90;;;;;;5039699;28;20483;-60
2023/05/01 03:11:26;;;;;;;15.50;7.30;;;7.70;99.90;;;;;;5038866;28;20527;-59
2023/05/01 03:13:52;;;;;;;8.60;5.67;;;7.70;99.90;;;;;;5038653;28;20532;-60
2023/05/01 03:16:19;;;;;;;8.00;5.13;;;7.70;99.90;;;;;;5038155;28;20444;-59
2023/05/01 03:18:47;;;;;;;10.07;6.30;;;7.60;99.90;;;;;;5038488;28;20452;-60
2023/05/01 03:21:14;;;;;;;9.40;4.93;;;7.60;99.90;;;;;;5038771;28;20953;-60
2023/05/01 03:23:41;;;;;;;12.80;6.17;;;7.60;99.90;;;;;;5039134;28;20510;-60
2023/05/01 03:26:14;;;;;;;10.07;5.20;;;7.60;99.90;;;;;;5039311;28;20503;-61
2023/05/01 03:28:43;;;;;;;6.23;4.80;;;7.60;99.90;;;;;;5038803;28;20443;-59
2023/05/01 03:31:10;;;;;;;9.23;5.60;;;7.60;99.90;;;;;;5038815;28;20853;-61
2023/05/01 03:33:36;;;;;;;6.10;4.77;;;7.50;99.90;;;;;;5039448;28;20428;-60
2023/05/01 03:36:08;;;;;;;7.60;4.87;;;7.50;99.90;;;;;;5038871;28;20448;-60
2023/05/01 03:38:35;;;;;;;8.17;5.67;;;7.50;99.90;;;;;;5038803;28;20451;-59
2023/05/01 03:41:03;;;;;;;6.70;4.67;;;7.50;99.90;;;;;;5039239;28;20486;-59
2023/05/01 03:43:31;;;;;;;9.30;4.70;;;7.50;99.90;;;;;;5038777;28;20840;-60
2023/05/01 03:46:01;;;;;;;11.70;5.40;;;7.50;99.90;;;;;;5038853;28;20448;-59
2023/05/01 03:48:27;;;;;;;7.43;4.60;;;7.40;99.90;;;;;;5038725;28;20472;-60
2023/05/01 03:50:55;;;;;;;7.13;4.63;;;7.40;99.90;;;;;;5038855;28;20440;-59
2023/05/01 03:53:22;;;;;;;7.17;4.80;;;7.40;99.90;;;;;;5038708;28;20525;-59
2023/05/01 03:55:49;;;;;;;7.50;4.70;;;7.40;99.90;;;;;;5038311;28;20440;-60
2023/05/01 03:58:16;;;;;;;7.60;3.83;;;7.40;99.90;;;;;;5038630;28;20956;-60
2023/05/01 04:00:42;;;;;;;9.20;4.87;;;7.40;99.90;;;;;;5038035;28;20511;-60
2023/05/01 04:03:11;;;;;;;8.27;4.80;;;7.40;99.90;;;;;;5038530;28;20503;-60
2023/05/01 04:05:38;;;;;;;7.93;4.67;;;7.40;99.90;;;;;;5036979;28;20998;-61
2023/05/01 04:08:06;;;;;;;7.50;4.60;;;7.40;99.90;;;;;;5038769;28;20471;-59
2023/05/01 04:10:33;;;;;;;9.87;5.07;;;7.40;99.90;;;;;;5038352;28;20464;-59
2023/05/01 04:12:59;;;;;;;9.63;4.60;;;7.40;99.90;;;;;;5038236;28;20455;-60
2023/05/01 04:15:27;;;;;;;10.53;3.90;;;7.40;99.90;;;;;;5038465;28;20515;-60
2023/05/01 04:17:55;;;;;;;11.97;4.83;;;7.40;99.90;;;;;;5038816;28;20452;-59
2023/05/01 04:20:24;;;;;;;11.23;4.87;;;7.40;99.90;;;;;;5038496;28;20793;-56
2023/05/01 04:22:50;;;;;;;10.37;5.03;;;7.40;99.90;;;;;;5038154;28;20472;-60
2023/05/01 04:25:18;;;;;;;8.43;5.23;;;7.40;99.90;;;;;;5038255;28;20490;-60
2023/05/01 04:27:48;;;;;;;9.37;4.60;;;7.40;99.90;;;;;;5038610;28;20533;-61
2023/05/01 04:30:21;;;;;;;9.93;5.70;;;7.40;99.90;;;;;;5041888;28;20469;-59
2023/05/01 04:32:50;;;;;;;11.33;4.53;;;7.40;99.90;;;;;;5042825;28;20523;-60
2023/05/01 04:35:19;;;;;;;9.03;4.53;;;7.30;99.90;;;;;;5042318;28;20575;-59
2023/05/01 04:37:47;;;;;;;9.03;3.93;;;7.40;99.90;;;;;;5042868;28;20458;-58
2023/05/01 04:40:15;;;;;;;9.17;5.17;;;7.40;99.90;;;;;;5056720;28;20467;-60
2023/05/01 04:42:44;;;;;;;7.20;3.87;;;7.40;99.90;;;;;;5056668;28;20516;-57
2023/05/01 04:45:12;;;;;;;8.30;4.57;;;7.40;99.90;;;;;;5049036;28;20498;-62
2023/05/01 04:47:45;;;;;;;11.83;4.33;;;7.50;99.90;;;;;;5047472;28;20540;-61
2023/05/01 04:50:11;;;;;;;5.60;4.37;;;7.50;99.90;;;;;;5042751;28;20505;-60
2023/05/01 04:52:38;;;;;;;6.83;4.03;;;7.60;99.90;;;;;;5041617;28;20471;-60
2023/05/01 04:55:09;;;;;;;12.23;4.37;;;7.60;99.90;;;;;;5042134;28;20472;-61
2023/05/01 04:57:36;;;;;;;5.90;4.10;;;7.60;99.90;;;;;;5041885;28;20546;-60
2023/05/01 05:00:03;;;;;;;8.63;4.93;;;7.70;99.90;;;;;;5041588;28;20520;-59
2023/05/01 05:02:30;;;;;;;5.80;4.70;;;7.80;99.90;;;;;;5041175;28;20455;-58
2023/05/01 05:04:58;;;;;;;7.03;4.83;;;7.80;99.90;;;;;;5041248;28;20471;-60
2023/05/01 05:07:25;;;;;;;8.60;3.93;;;8.00;99.90;;;;;;5041088;28;20468;-59
2023/05/01 05:09:52;;;;;;;8.80;4.90;;;8.10;99.90;;;;;;5041317;28;20539;-61
2023/05/01 05:12:20;;;;;;;5.63;3.43;;;8.10;99.90;;;;;;5041097;28;20464;-62
2023/05/01 05:14:47;;;;;;;9.50;4.80;;;8.10;99.90;;;;;;5040908;28;20523;-62
2023/05/01 05:17:14;;;;;;;12.20;4.63;;;8.10;99.90;;;;;;5040897;28;20460;-59
2023/05/01 05:19:41;;;;;;;6.60;4.20;;;8.20;99.90;;;;;;5040849;28;20453;-59
2023/05/01 05:22:11;;;;;;;7.43;4.00;;;8.20;99.90;;;;;;5040906;28;20487;-59
2023/05/01 05:24:37;;;;;;;5.47;4.57;;;8.20;99.90;;;;;;5040748;28;20472;-60
2023/05/01 05:27:05;;;;;;;5.70;3.67;;;8.30;99.90;;;;;;5040364;28;20480;-56
2023/05/01 05:29:36;;;;;;;7.40;3.43;;;8.40;99.90;;;;;;5040766;28;20476;-60
2023/05/01 05:32:04;;;;;;;5.73;4.33;;;8.40;99.90;;;;;;5041106;28;20433;-59
2023/05/01 05:34:31;;;;;;;10.60;3.83;;;8.50;99.90;;;;;;5040464;28;20475;-58
2023/05/01 05:37:01;;;;;;;8.03;4.10;;;8.50;99.90;;;;;;5040372;28;20452;-60
2023/05/01 05:39:29;;;;;;;6.77;4.67;;;8.60;99.90;;;;;;5039607;28;20925;-59
2023/05/01 05:41:56;;;;;;;8.13;4.80;;;8.70;99.90;;;;;;5040411;28;20476;-59
2023/05/01 05:44:23;;;;;;;4.03;3.00;;;8.80;99.90;;;;;;5040481;28;20452;-59
2023/05/01 05:46:51;;;;;;;8.90;4.23;;;8.90;99.90;;;;;;5040303;28;20495;-59
2023/05/01 05:49:19;;;;;;;7.53;3.73;;;8.90;99.90;;;;;;5039873;28;20444;-59
2023/05/01 05:51:46;;;;;;;8.30;4.00;;;9.00;99.90;;;;;;5039741;28;20502;-59
2023/05/01 05:54:13;;;;;;;9.27;4.73;;;9.10;99.90;;;;;;5039540;28;20479;-59
2023/05/01 05:56:40;;;;;;;7.00;3.70;;;9.20;99.90;;;;;;5039642;28;20470;-60
2023/05/01 05:59:07;;;;;;;8.23;3.47;;;9.20;99.90;;;;;;5039613;28;20463;-60
2023/05/01 06:01:36;;;;;;;5.93;3.60;;;9.40;99.90;;;;;;5039389;28;20483;-60
2023/05/01 06:04:04;;;;;;;7.23;4.23;;;9.40;99.90;;;;;;5039514;28;20499;-58
2023/05/01 06:06:31;;;;;;;8.60;3.30;;;9.50;99.90;;;;;;5039069;28;20491;-60
2023/05/01 06:08:59;;;;;;;5.10;3.30;;;9.60;99.90;;;;;;5039380;28;20472;-60
2023/05/01 06:11:28;;;;;;;5.77;3.30;;;9.70;99.90;;;;;;5038708;28;20444;-59
2023/05/01 06:13:59;;;;;;;8.97;3.70;;;9.80;99.90;;;;;;5038668;28;20468;-60
2023/05/01 06:16:26;;;;;;;4.67;3.23;;;9.90;99.90;;;;;;5039166;28;20498;-60
2023/05/01 06:18:52;;;;;;;9.40;3.63;;;10.00;99.90;;;;;;5038965;28;20539;-59
2023/05/01 06:21:21;;;;;;;5.23;3.40;;;10.10;99.90;;;;;;5038217;28;20480;-58
2023/05/01 06:23:48;;;;;;;5.30;3.43;;;10.20;99.90;;;;;;5038792;28;20463;-60
2023/05/01 06:26:14;;;;;;;6.47;3.50;;;10.30;99.90;;;;;;5038489;28;20559;-60
2023/05/01 06:28:41;;;;;;;7.17;3.80;;;10.50;99.90;;;;;;5038495;28;20855;-60
2023/05/01 06:31:08;;;;;;;7.37;4.60;;;10.60;99.90;;;;;;5038613;28;21028;-59
2023/05/01 06:33:35;;;;;;;4.67;3.70;;;10.70;99.90;;;;;;5038302;28;21015;-58
2023/05/01 06:36:02;;;;;;;6.77;2.60;;;10.80;99.90;;;;;;5037780;28;20459;-60
2023/05/01 06:38:31;;;;;;;10.03;3.20;;;10.90;99.90;;;;;;5038267;28;20475;-60
2023/05/01 06:40:58;;;;;;;8.40;3.13;;;11.10;99.90;;;;;;5037745;28;20813;-60
2023/05/01 06:43:29;;;;;;;5.13;3.87;;;11.20;99.90;;;;;;5037440;28;21026;-59
2023/05/01 06:45:56;;;;;;;5.87;3.37;;;11.40;99.90;;;;;;5043042;28;20463;-59
2023/05/01 06:48:23;;;;;;;4.63;3.47;;;11.50;99.90;;;;;;5055538;28;20482;-58
2023/05/01 06:50:50;;;;;;;5.40;3.47;;;11.60;99.90;;;;;;5055636;28;20451;-57
2023/05/01 06:53:17;;;;;;;6.00;2.97;;;11.70;99.90;;;;;;5055359;28;20495;-57
2023/05/01 06:55:45;;;;;;;5.93;3.73;;;11.90;99.90;;;;;;5055985;28;20436;-57
2023/05/01 06:58:12;;;;;;;6.83;3.20;;;12.00;99.90;;;;;;5056775;28;20436;-56
2023/05/01 07:00:39;;;;;;;6.77;4.10;;;12.10;99.90;;;;;;5047334;28;20460;-56
2023/05/01 07:03:05;;;;;;;6.23;3.33;;;12.20;99.90;;;;;;5045628;28;20579;-60
2023/05/01 07:05:32;;;;;;;3.90;2.77;;;12.40;99.90;;;;;;5040361;28;20460;-62
2023/05/01 07:08:02;;;;;;;6.40;3.53;;;12.50;99.90;;;;;;5039324;28;20464;-61
2023/05/01 07:10:29;;;;;;;4.40;2.70;;;12.60;99.90;;;;;;5037310;28;20492;-61
2023/05/01 07:12:59;;;;;;;4.93;2.90;;;12.80;99.90;;;;;;5037062;28;20547;-59
2023/05/01 07:15:26;;;;;;;6.13;3.03;;;12.90;99.90;;;;;;5036604;28;20451;-60
2023/05/01 07:17:55;;;;;;;6.50;3.97;;;13.10;99.70;;;;;;5037085;28;20444;-60
2023/05/01 07:20:21;;;;;;;11.40;3.53;;;13.30;99.20;;;;;;5036145;28;20456;-60
2023/05/01 07:22:48;;;;;;;5.27;3.70;;;13.40;97.50;;;;;;5036165;28;20889;-61
2023/05/01 07:25:15;;;;;;;6.70;4.20;;;13.50;96.80;;;;;;5036390;28;20496;-60
2023/05/01 07:27:42;;;;;;;2.93;2.30;;;13.70;96.00;;;;;;5035729;28;20471;-60
2023/05/01 07:30:11;;;;;;;8.90;3.30;;;13.90;95.40;;;;;;5035760;28;20811;-59
2023/05/01 07:32:39;;;;;;;5.93;2.80;;;14.10;94.70;;;;;;5035801;28;20532;-60
2023/05/01 07:35:07;;;;;;;6.13;2.80;;;14.30;94.00;;;;;;5035138;28;20513;-60
2023/05/01 07:37:34;;;;;;;4.40;2.70;;;14.50;93.30;;;;;;5035445;28;20486;-59
2023/05/01 07:40:01;;;;;;;7.30;3.33;;;14.80;92.80;;;;;;5035796;28;20544;-62
2023/05/01 07:42:28;;;;;;;3.90;2.87;;;15.10;91.00;;;;;;5035007;28;20523;-61
2023/05/01 07:44:55;;;;;;;5.67;3.20;;;15.40;90.30;;;;;;5035097;28;20480;-60
2023/05/01 07:47:23;;;;;;;4.60;3.20;;;15.80;87.80;;;;;;5035202;28;20510;-60
2023/05/01 07:49:50;;;;;;;4.73;3.30;;;16.20;84.90;;;;;;5035129;28;20451;-60
2023/05/01 07:52:17;;;;;;;5.37;3.07;;;16.70;81.80;;;;;;5034601;28;20527;-59
2023/05/01 07:54:48;;;;;;;5.53;3.03;;;17.30;79.20;;;;;;5034871;28;20523;-61
2023/05/01 07:57:15;;;;;;;11.17;3.43;;;18.10;76.30;;;;;;5034497;28;20436;-62
2023/05/01 07:59:42;;;;;;;9.63;3.60;;;19.20;71.20;;;;;;5034490;28;20547;-62
2023/05/01 08:02:09;;;;;;;5.70;3.13;;;20.30;64.70;;;;;;5034373;28;20498;-60
2023/05/01 08:04:37;;;;;;;3.60;2.93;;;21.30;61.20;;;;;;5039090;28;20510;-60
2023/05/01 08:07:04;;;;;;;7.40;4.03;;;22.60;56.90;;;;;;5038876;28;20538;-63
2023/05/01 08:09:31;;;;;;;6.23;3.50;;;23.50;52.80;;;;;;5039011;28;21040;-62
2023/05/01 08:11:58;;;;;;;7.83;5.00;;;24.20;50.40;;;;;;5038617;28;20440;-61
2023/05/01 08:14:24;;;;;;;5.80;4.50;;;24.80;47.60;;;;;;5038683;28;20539;-58
2023/05/01 08:16:54;;;;;;;6.80;3.53;;;25.10;46.90;;;;;;5038672;28;20451;-60
2023/05/01 08:19:21;;;;;;;5.80;2.73;;;25.30;46.50;;;;;;5045152;28;20460;-58
2023/05/01 08:21:50;;;;;;;4.83;3.43;;;25.30;44.80;;;;;;5051896;28;20479;-59
2023/05/01 08:24:17;;;;;;;8.43;3.90;;;25.60;44.70;;;;;;5049385;28;20507;-62
2023/05/01 08:26:44;;;;;;;7.00;3.30;;;25.70;43.90;;;;;;5042744;28;20496;-60
2023/05/01 08:29:11;;;;;;;4.27;3.47;;;25.80;42.80;;;;;;5040506;28;20479;-60
2023/05/01 08:31:38;;;;;;;7.73;3.77;;;25.80;42.10;;;;;;5039861;28;20515;-62
2023/05/01 08:34:05;;;;;;;4.30;3.40;;;25.60;42.00;;;;;;5038160;28;20509;-62
2023/05/01 08:36:32;;;;;;;4.97;3.10;;;25.20;41.80;;;;;;5038150;28;20451;-62
2023/05/01 08:39:01;;;;;;;5.50;3.20;;;24.60;42.60;;;;;;5037812;28;20530;-61
2023/05/01 08:41:28;;;;;;;5.20;2.87;;;24.40;43.30;;;;;;5039866;28;20444;-60
2023/05/01 08:43:57;;;;;;;6.23;2.70;;;24.80;42.70;;;;;;5043259;28;20478;-60
2023/05/01 08:46:32;;;;;;;6.43;2.60;;;25.50;42.20;;;;;;5054942;28;20456;-60
2023/05/01 08:49:01;;;;;;;10.73;3.00;;;26.10;50.50;;;;;;5056759;28;20546;-59
2023/05/01 08:51:32;;;;;;;4.13;3.10;;;27.10;44.40;;;;;;5059108;28;20431;-61
2023/05/01 08:54:02;;;;;;;4.20;2.97;;;27.70;40.70;;;;;;5056141;28;20428;-57
2023/05/01 08:56:32;;;;;;;4.30;3.13;;;27.60;39.60;;;;;;5059196;28;20456;-60
2023/05/01 08:59:02;;;;;;;6.53;2.90;;;27.00;50.30;;;;;;5057917;28;20452;-60
2023/05/01 09:01:31;;;;;;;6.13;2.77;;;27.30;38.00;;;;;;5058712;28;20548;-57
2023/05/01 09:03:58;;;;;;;4.03;2.77;;;26.90;37.90;;;;;;5059211;28;20455;-56
2023/05/01 09:06:27;;;;;;;5.47;2.77;;;26.30;39.10;;;;;;5058710;28;20471;-56
2023/05/01 09:08:54;;;;;;;5.80;2.60;;;26.10;39.40;;;;;;5059369;28;20447;-59
2023/05/01 09:11:22;;;;;;;6.63;3.60;;;26.40;39.30;;;;;;5053975;28;20511;-59
2023/05/01 09:13:50;;;;;;;9.37;3.97;;;26.60;39.40;;;;;;5048133;28;20468;-61
2023/05/01 09:16:17;;;;;;;4.40;2.87;;;26.70;38.60;;;;;;5047076;28;20472;-60
2023/05/01 09:18:44;;;;;;;6.57;2.77;;;26.80;37.80;;;;;;5046261;28;20460;-61
2023/05/01 09:21:12;;;;;;;3.30;2.33;;;27.10;38.00;;;;;;5056169;28;20455;-60
2023/05/01 09:23:39;;;;;;;3.77;2.83;;;27.30;38.00;;;;;;5050708;28;20468;-61
2023/05/01 09:26:07;;;;;;;3.90;2.77;;;27.70;37.10;;;;;;5055865;28;20440;-60
2023/05/01 09:28:42;;;;;;;6.47;3.03;;;28.20;36.20;;;;;;5052826;28;20464;-60
2023/05/01 09:31:27;;;;;;;5.73;2.90;;;28.40;35.60;;;;;;5041214;28;20529;-62
2023/05/01 09:33:55;;;;;;;5.63;3.00;;;28.40;35.70;;;;;;5048773;28;20484;-62
2023/05/01 09:36:23;;;;;;;6.87;2.93;;;28.60;34.80;;;;;;5054266;28;20431;-59
2023/05/01 09:38:51;;;;;;;5.30;3.30;;;28.30;36.10;;;;;;5053570;28;20436;-61
2023/05/01 09:41:21;;;;;;;3.93;2.80;;;28.50;36.40;;;;;;5048559;28;20427;-55
2023/05/01 09:43:57;;;;;;;9.73;3.37;;;29.20;35.40;;;;;;5058333;28;20472;-57
2023/05/01 09:46:26;;;;;;;3.90;3.37;;;29.50;34.90;;;;;;5046411;28;20428;-60
2023/05/01 09:48:55;;;;;;;5.53;3.10;;;29.40;34.50;;;;;;5045983;28;20455;-61
2023/05/01 09:51:25;;;;;;;5.30;3.07;;;29.20;34.20;;;;;;5042207;28;20569;-61
2023/05/01 09:53:53;;;;;;;4.00;2.97;;;29.30;34.50;;;;;;5041610;28;20429;-60
2023/05/01 09:56:20;;;;;;;4.40;2.30;;;28.70;34.80;;;;;;5040937;28;20494;-61
2023/05/01 09:58:47;;;;;;;5.43;2.90;;;28.50;35.20;;;;;;5047638;28;20451;-60
2023/05/01 10:01:16;;;;;;;6.33;2.80;;;28.40;40.20;;;;;;5056984;28;20741;-61
2023/05/01 10:03:44;;;;;;;4.20;3.00;;;28.40;38.00;;;;;;5057260;28;20448;-59
2023/05/01 10:06:11;;;;;;;6.83;3.50;;;28.50;38.80;;;;;;5056939;28;20436;-60
2023/05/01 10:08:46;;;;;;;8.27;3.80;;;28.30;35.90;;;;;;5040782;28;20506;-61
2023/05/01 10:11:14;;;;;;;7.00;3.53;;;28.40;35.70;;;;;;5039087;28;20963;-61
2023/05/01 10:13:42;;;;;;;6.90;3.80;;;28.60;35.90;;;;;;5036136;28;20472;-61
2023/05/01 10:16:29;;;;;;;5.13;4.00;;;28.70;36.00;;;;;;5039948;28;20444;-61
2023/05/01 10:18:57;;;;;;;3.40;2.70;;;29.00;35.60;;;;;;5047054;28;20464;-61
2023/05/01 10:21:27;;;;;;;5.93;3.70;;;28.90;36.00;;;;;;5039515;28;20444;-63
2023/05/01 10:23:55;;;;;;;8.80;3.60;;;28.60;35.90;;;;;;5042498;28;20488;-63
2023/05/01 10:26:24;;;;;;;4.50;3.37;;;28.30;36.00;;;;;;5042640;28;20502;-59
2023/05/01 10:28:52;;;;;;;5.97;3.50;;;27.70;36.70;;;;;;5052280;28;20468;-54
2023/05/01 10:31:19;;;;;;;4.97;3.30;;;27.40;36.70;;;;;;5047207;28;20755;-60
2023/05/01 10:33:49;;;;;;;4.97;2.80;;;26.80;37.10;;;;;;5053761;28;20500;-57
2023/05/01 10:36:24;;;;;;;9.90;3.97;;;26.50;37.80;;;;;;5049477;28;20497;-61
2023/05/01 10:38:51;;;;;;;3.30;2.63;;;26.20;38.20;;;;;;5046494;28;20467;-61
2023/05/01 10:41:57;;;;;;;6.63;3.40;;;25.90;39.10;;;;;;5054619;28;20444;-58
2023/05/01 10:44:26;;;;;;;5.80;3.70;;;25.80;38.80;;;;;;5057319;28;20440;-58
2023/05/01 10:46:53;;;;;;;9.50;3.47;;;25.60;39.00;;;;;;5056573;28;20476;-59
2023/05/01 10:49:21;;;;;;;5.70;2.97;;;25.20;39.00;;;;;;5054186;28;20516;-59
2023/05/01 10:52:02;;;;;;;4.73;3.00;;;24.90;39.50;;;;;;5053990;28;20436;-61
2023/05/01 10:54:30;;;;;;;5.17;3.80;;;24.50;40.00;;;;;;5054391;28;20520;-60
2023/05/01 10:56:58;;;;;;;10.43;4.00;;;24.10;40.40;;;;;;5054538;28;20444;-59
2023/05/01 10:59:27;;;;;;;6.20;5.60;;;23.70;40.80;;;;;;5054812;28;20451;-59
2023/05/01 11:01:54;;;;;;;5.93;3.80;;;23.70;40.80;;;;;;5056575;28;20425;-61
2023/05/01 11:04:56;;;;;;;3.73;3.00;;;23.40;41.50;;;;;;5056545;28;20448;-60
2023/05/01 11:07:24;;;;;;;6.03;4.37;;;23.40;42.80;;;;;;5056410;28;20423;-57
2023/05/01 11:09:54;;;;;;;3.57;3.20;;;23.20;40.90;;;;;;5047704;28;20472;-60
2023/05/01 11:12:55;;;;;;;8.17;3.20;;;22.90;44.20;;;;;;5045328;28;20475;-61
2023/05/01 11:15:28;;;;;;;4.00;2.80;;;22.50;42.70;;;;;;4971089;29;20463;-61
2023/05/01 11:17:55;;;;;;;8.60;3.90;;;22.10;42.20;;;;;;4971599;29;20475;-57
2023/05/01 11:20:50;;;;;;;5.43;3.83;;;21.70;42.50;;;;;;5012445;28;20482;-60
2023/05/01 11:23:18;;;;;;;5.53;3.07;;;21.40;43.20;;;;;;5049447;28;20542;-58
2023/05/01 11:25:48;;;;;;;9.23;4.90;;;21.20;42.90;;;;;;5046641;28;20487;-62
2023/05/01 11:28:20;;;;;;;3.80;3.10;;;21.10;43.60;;;;;;5046412;28;20443;-60
2023/05/01 11:30:48;;;;;;;5.60;4.70;;;20.90;43.70;;;;;;5049540;28;20500;-60
2023/05/01 11:33:24;;;;;;;13.97;6.23;;;20.90;44.10;;;;;;5041699;28;20510;-61
2023/05/01 11:35:59;;;;;;;5.00;3.43;;;20.90;44.80;;;;;;5041789;28;20432;-60
2023/05/01 11:38:27;;;;;;;6.50;3.17;;;21.00;44.00;;;;;;5037565;28;20439;-61
2023/05/01 11:40:57;;;;;;;4.30;2.67;;;21.10;44.60;;;;;;5050005;28;20444;-61
2023/05/01 11:43:24;;;;;;;10.20;3.90;;;20.90;44.60;;;;;;5039883;28;20508;-61
2023/05/01 11:46:01;;;;;;;3.90;2.93;;;20.90;45.20;;;;;;5037658;28;20495;-61
2023/05/01 11:48:29;;;;;;;4.90;4.40;;;21.00;45.10;;;;;;5045569;28;20499;-61
2023/05/01 11:50:56;;;;;;;6.90;4.23;;;21.00;44.80;;;;;;5052565;28;20440;-60
2023/05/01 11:53:24;;;;;;;5.27;4.10;;;21.10;44.60;;;;;;5055846;28;20455;-60
2023/05/01 11:55:51;;;;;;;9.27;4.27;;;21.30;44.60;;;;;;5052772;28;20425;-60
2023/05/01 11:58:18;;;;;;;4.27;3.50;;;21.30;45.90;;;;;;5055251;28;20463;-58
2023/05/01 12:00:45;;;;;;;6.87;4.00;;;21.30;44.10;;;;;;5053574;28;20436;-59
2023/05/01 12:03:14;;;;;;;4.13;3.20;;;21.20;44.10;;;;;;5055429;28;20486;-55
2023/05/01 12:05:43;;;;;;;6.37;3.17;;;21.20;44.40;;;;;;5053634;28;20467;-63
2023/05/01 12:08:11;;;;;;;4.27;3.80;;;21.10;44.80;;;;;;5055499;28;20443;-56
2023/05/01 12:10:40;;;;;;;6.73;3.67;;;21.10;44.60;;;;;;5045850;28;20452;-61
2023/05/01 12:13:09;;;;;;;4.37;3.50;;;21.10;44.60;;;;;;5038411;28;20444;-59
2023/05/01 12:15:39;;;;;;;5.87;3.83;;;21.10;45.20;;;;;;5044168;28;20526;-61
2023/05/01 12:18:07;;;;;;;9.33;3.63;;;21.00;45.00;;;;;;5041190;28;20456;-63
2023/05/01 12:20:37;;;;;;;4.97;3.63;;;20.90;45.00;;;;;;5052801;28;20444;-60
2023/05/01 12:23:05;;;;;;;6.37;3.63;;;20.90;45.40;;;;;;5038490;28;20480;-62
2023/05/01 12:25:33;;;;;;;5.70;3.83;;;21.00;45.90;;;;;;5037541;28;20487;-60
2023/05/01 12:28:09;;;;;;;12.93;4.10;;;21.10;45.00;;;;;;5036122;28;20479;-59
2023/05/01 12:30:36;;;;;;;4.30;3.37;;;21.20;45.10;;;;;;5038263;28;20448;-58
2023/05/01 12:33:11;;;;;;;5.87;4.00;;;21.30;44.80;;;;;;5042628;28;20522;-61
2023/05/01 12:35:40;;;;;;;8.10;5.00;;;21.30;44.90;;;;;;5047817;28;20459;-61
2023/05/01 12:38:12;;;;;;;4.40;3.83;;;21.20;45.00;;;;;;5049743;28;20468;-61
2023/05/01 12:40:40;;;;;;;5.03;3.67;;;21.10;44.90;;;;;;5044315;28;20451;-60
2023/05/01 12:43:07;;;;;;;4.40;3.40;;;;;;;;;;5050505;28;20476;-62
2023/05/01 12:45:40;;;;;;;5.10;3.80;;;21.20;45.60;;;;;;5043985;28;20455;-63
2023/05/01 12:48:12;;;;;;;5.73;3.80;;;21.30;46.40;;;;;;5052433;28;20472;-58
2023/05/01 12:50:40;;;;;;;13.17;4.03;;;21.30;45.50;;;;;;5055854;28;20475;-61
2023/05/01 12:53:09;;;;;;;5.40;3.57;;;21.40;45.50;;;;;;5058977;28;20456;-60
2023/05/01 12:55:46;;;;;;;4.53;3.90;;;21.20;45.30;;;;;;5057532;28;20460;-62
2023/05/01 12:58:13;;;;;;;8.07;4.37;;;21.30;45.80;;;;;;5057018;28;20428;-59
2023/05/01 13:00:45;;;;;;;6.97;4.97;;;21.50;61.30;;;;;;5058562;28;20474;-62